Time;durP1;ratioP1;P1;durP2;ratioP2;P2;SDS_P1;SDS_P2;PMS_P1;PMS_P2;Temp;Humidity;BMP_temperature;BMP_pressure;BME280_temperature;BME280_humidity;BME280_pressure;Samples;Min_cycle;Max_cycle;Signal;HPM_P1;HPM_P2
2021/12/30 00:02:10;;;;;;;36.42;29.75;;;;;;;6.45;59.19;100967.56;5046698;28;20956;-66
2021/12/30 00:04:37;;;;;;;34.28;27.67;;;;;;;6.32;59.45;100972.75;5046441;28;20427;-65
2021/12/30 00:07:04;;;;;;;30.15;26.05;;;;;;;6.31;59.76;100982.44;5047135;28;20415;-67
2021/12/30 00:09:31;;;;;;;31.13;26.40;;;;;;;6.34;59.73;100982.22;5047757;28;20499;-67
2021/12/30 00:12:00;;;;;;;29.42;25.48;;;;;;;6.15;60.16;100977.25;5036715;28;20424;-66
2021/12/30 00:14:27;;;;;;;30.55;24.90;;;;;;;6.15;60.63;100987.75;5050606;28;20492;-66
2021/12/30 00:16:53;;;;;;;28.40;23.92;;;;;;;6.17;60.28;100991.16;5050555;28;20416;-66
2021/12/30 00:19:21;;;;;;;29.48;23.95;;;;;;;6.17;60.13;100993.78;5032715;28;20500;-66
2021/12/30 00:21:48;;;;;;;27.45;23.58;;;;;;;6.27;59.71;100995.88;5050346;28;20555;-66
2021/12/30 00:24:16;;;;;;;28.75;23.42;;;;;;;6.23;59.83;101003.09;5050871;28;20441;-66
2021/12/30 00:26:43;;;;;;;29.00;24.55;;;;;;;6.33;59.76;101011.28;5050628;28;20416;-66
2021/12/30 00:29:11;;;;;;;30.17;24.38;;;;;;;6.48;59.59;101004.25;5050134;28;20907;-67
2021/12/30 00:31:38;;;;;;;31.43;25.43;;;;;;;6.54;59.45;101011.75;5050093;28;20794;-66
2021/12/30 00:34:05;;;;;;;28.55;23.30;;;;;;;6.40;59.70;101004.69;5050262;28;20523;-66
2021/12/30 00:36:32;;;;;;;28.42;24.25;;;;;;;6.58;59.12;101011.47;5050668;28;20483;-66
2021/12/30 00:38:59;;;;;;;29.08;24.33;;;;;;;6.37;59.78;101018.06;5049902;28;20412;-66
2021/12/30 00:41:26;;;;;;;28.17;23.93;;;;;;;6.40;59.87;101013.44;5050149;28;20428;-67
2021/12/30 00:43:53;;;;;;;28.50;24.55;;;;;;;6.52;59.48;101014.47;5049930;28;20503;-67
2021/12/30 00:46:21;;;;;;;29.25;24.88;;;;;;;6.54;59.12;101022.28;5050222;28;20519;-66
2021/12/30 00:48:48;;;;;;;31.92;25.55;;;;;;;6.57;59.48;101027.38;5050391;28;20424;-68
2021/12/30 00:51:15;;;;;;;30.13;25.67;;;;;;;6.44;59.96;101024.63;5049963;28;20416;-68
2021/12/30 00:53:42;;;;;;;31.20;26.33;;;;;;;6.44;59.74;101023.78;5050176;28;20423;-67
2021/12/30 00:56:09;;;;;;;29.65;24.70;;;;;;;6.36;59.85;101026.88;5049326;28;20474;-66
2021/12/30 00:58:36;;;;;;;30.90;25.15;;;;;;;6.29;60.12;101030.84;5050119;28;20424;-67
2021/12/30 01:01:04;;;;;;;29.67;24.87;;;;;;;6.09;60.22;101034.63;5049540;28;20559;-68
2021/12/30 01:03:34;;;;;;;29.90;24.85;;;;;;;6.24;59.89;101030.25;5049872;28;20447;-67
2021/12/30 01:06:01;;;;;;;33.30;26.95;;;;;;;6.23;60.23;101047.81;5049171;28;20444;-68
2021/12/30 01:08:28;;;;;;;28.73;23.27;;;;;;;6.43;59.51;101041.38;5049526;28;20491;-67
2021/12/30 01:10:56;;;;;;;26.60;23.00;;;;;;;6.47;59.12;101048.16;5041167;28;20491;-72
2021/12/30 01:13:26;;;;;;;26.83;23.17;;;;;;;6.17;60.26;101046.41;5032787;28;20491;-67
2021/12/30 01:16:00;;;;;;;25.27;21.35;;;;;;;5.77;61.68;101053.94;5048797;28;20413;-67
2021/12/30 01:18:41;;;;;;;25.52;22.05;;;;;;;5.68;62.22;101048.34;5048668;28;20462;-66
2021/12/30 01:21:12;;;;;;;24.40;20.63;;;;;;;5.83;61.31;101043.06;5048192;28;20427;-67
2021/12/30 01:23:42;;;;;;;26.42;21.95;;;;;;;6.24;60.53;101044.25;5048762;28;20435;-66
2021/12/30 01:26:09;;;;;;;25.27;21.50;;;;;;;5.94;61.21;101054.75;5048634;28;20508;-67
2021/12/30 01:31:21;;;;;;;25.15;21.77;;;;;;;6.67;59.42;101059.22;5048564;28;20411;-67
2021/12/30 01:33:48;;;;;;;27.80;23.03;;;;;;;6.57;59.60;101059.81;5048906;28;20499;-66
2021/12/30 01:36:17;;;;;;;28.60;23.67;;;;;;;6.80;58.96;101057.56;5049189;28;20417;-67
2021/12/30 01:38:45;;;;;;;28.80;23.47;;;;;;;6.66;58.90;101058.41;5049330;28;20413;-65
2021/12/30 01:41:13;;;;;;;28.23;23.30;;;;;;;6.71;59.00;101058.97;5048860;28;21036;-66
2021/12/30 01:43:40;;;;;;;25.45;21.20;;;;;;;6.73;58.30;101059.72;5048916;28;20433;-66
2021/12/30 01:46:09;;;;;;;23.67;20.73;;;;;;;6.65;58.58;101061.13;5049236;28;20409;-66
2021/12/30 01:48:36;;;;;;;27.65;23.13;;;;;;;6.59;58.80;101071.09;5049536;28;21017;-67
2021/12/30 01:51:04;;;;;;;29.10;23.45;;;;;;;6.33;60.07;101072.66;5049028;28;20981;-66
2021/12/30 01:53:33;;;;;;;27.60;23.55;;;;;;;6.30;60.12;101080.72;5049325;28;20413;-66
2021/12/30 01:56:00;;;;;;;32.57;26.07;;;;;;;6.21;60.64;101076.84;5048554;28;20487;-66
2021/12/30 01:58:28;;;;;;;36.28;30.02;;;;;;;6.13;60.94;101073.81;5048873;28;20413;-66
2021/12/30 02:00:56;;;;;;;53.10;43.78;;;;;;;5.96;61.49;101077.44;5048373;28;20928;-67
2021/12/30 02:03:24;;;;;;;50.97;41.15;;;;;;;5.84;61.96;101083.38;5048421;28;20899;-67
2021/12/30 02:05:52;;;;;;;50.80;39.73;;;;;;;5.74;62.37;101085.66;5048641;28;20500;-68
2021/12/30 02:08:20;;;;;;;40.70;32.25;;;;;;;5.38;63.54;101092.03;5049559;28;20405;-66
2021/12/30 02:10:50;;;;;;;42.92;34.08;;;;;;;5.60;63.11;101093.50;5048098;28;20423;-70
2021/12/30 02:13:19;;;;;;;35.03;29.58;;;;;;;5.65;62.32;101099.31;5037873;28;20495;-66
2021/12/30 02:15:46;;;;;;;33.22;27.13;;;;;;;5.65;62.45;101095.84;5049431;28;20503;-66
2021/12/30 02:18:13;;;;;;;32.15;25.85;;;;;;;5.71;62.20;101090.25;5050056;28;20460;-66
2021/12/30 02:20:53;;;;;;;33.28;26.50;;;;;;;5.73;62.21;101091.84;5049522;28;20420;-66
2021/12/30 02:23:22;;;;;;;32.33;27.15;;;;;;;5.66;62.25;101101.03;5049893;28;20429;-65
2021/12/30 02:25:50;;;;;;;36.13;29.30;;;;;;;5.80;61.73;101106.34;5050199;28;20511;-66
2021/12/30 02:28:21;;;;;;;36.17;29.67;;;;;;;5.93;61.67;101108.28;5049539;28;20413;-66
2021/12/30 02:30:48;;;;;;;38.22;32.10;;;;;;;5.77;61.80;101106.50;5049527;28;20420;-66
2021/12/30 02:33:15;;;;;;;39.60;32.70;;;;;;;5.99;61.31;101113.22;5049339;28;20413;-66
2021/12/30 02:35:44;;;;;;;36.85;30.80;;;;;;;5.95;61.39;101111.72;5049395;28;20491;-66
2021/12/30 02:38:11;;;;;;;38.72;30.88;;;;;;;5.74;62.14;101109.34;5049535;28;20495;-66
2021/12/30 02:40:41;;;;;;;38.00;31.25;;;;;;;5.69;62.23;101113.97;5049284;28;20413;-65
2021/12/30 02:43:11;;;;;;;38.40;32.13;;;;;;;5.79;62.21;101104.66;5049367;28;20434;-66
2021/12/30 02:45:39;;;;;;;39.15;31.08;;;;;;;5.66;62.30;101110.69;5049787;28;20423;-66
2021/12/30 02:48:06;;;;;;;33.40;27.77;;;;;;;5.54;62.42;101102.56;5049193;28;20924;-65
2021/12/30 02:50:33;;;;;;;33.17;26.85;;;;;;;5.41;62.81;101105.03;5049275;28;20420;-65
2021/12/30 02:53:01;;;;;;;34.75;27.23;;;;;;;5.58;62.46;101111.97;5049269;28;20508;-65
2021/12/30 02:55:28;;;;;;;34.72;28.30;;;;;;;5.47;63.05;101119.59;5049495;28;20415;-66
2021/12/30 02:57:55;;;;;;;35.93;29.20;;;;;;;5.63;62.42;101116.97;5049479;28;20488;-66
2021/12/30 03:00:22;;;;;;;36.08;29.35;;;;;;;5.55;62.95;101121.78;5049507;28;20416;-65
2021/12/30 03:02:49;;;;;;;35.47;29.38;;;;;;;5.59;62.71;101123.31;5049199;28;20438;-67
2021/12/30 03:05:20;;;;;;;38.67;31.20;;;;;;;5.78;62.22;101131.03;5049408;28;20440;-66
2021/12/30 03:07:47;;;;;;;34.87;28.93;;;;;;;5.69;62.27;101129.75;5049312;28;20412;-66
2021/12/30 03:10:18;;;;;;;35.47;29.15;;;;;;;5.62;62.54;101128.41;5049296;28;20484;-66
2021/12/30 03:12:45;;;;;;;33.15;27.83;;;;;;;5.40;62.91;101126.97;5033159;28;20415;-67
2021/12/30 03:15:13;;;;;;;34.67;28.27;;;;;;;5.58;62.87;101125.09;5048956;28;20411;-66
2021/12/30 03:17:41;;;;;;;35.42;28.33;;;;;;;5.74;61.93;101137.41;5049049;28;20416;-67
2021/12/30 03:20:10;;;;;;;34.00;27.58;;;;;;;5.70;62.13;101146.41;5048944;28;20918;-66
2021/12/30 03:22:38;;;;;;;34.33;28.13;;;;;;;5.76;61.85;101152.16;5048751;28;20441;-67
2021/12/30 03:25:06;;;;;;;35.50;28.17;;;;;;;5.74;62.10;101159.28;5049152;28;20431;-66
2021/12/30 03:27:35;;;;;;;35.75;30.00;;;;;;;5.73;61.93;101156.72;5049214;28;20435;-66
2021/12/30 03:30:05;;;;;;;36.50;30.60;;;;;;;5.71;62.37;101161.22;5049144;28;20420;-66
2021/12/30 03:32:32;;;;;;;38.83;31.50;;;;;;;5.71;62.13;101159.44;5048916;28;20911;-66
2021/12/30 03:34:59;;;;;;;39.13;32.00;;;;;;;5.93;61.57;101174.88;5049298;28;20441;-66
2021/12/30 03:37:26;;;;;;;43.67;33.72;;;;;;;5.58;62.39;101172.41;5049093;28;20500;-66
2021/12/30 03:39:53;;;;;;;44.17;35.13;;;;;;;5.36;62.98;101172.72;5048758;28;20423;-66
2021/12/30 03:42:20;;;;;;;41.30;33.13;;;;;;;5.21;63.71;101182.28;5048753;28;20515;-66
2021/12/30 03:44:49;;;;;;;42.90;33.33;;;;;;;5.37;63.37;101184.94;5051759;28;20436;-65
2021/12/30 03:47:18;;;;;;;43.63;33.53;;;;;;;5.45;62.89;101181.03;5052703;28;20408;-66
2021/12/30 03:49:47;;;;;;;35.27;27.40;;;;;;;5.44;62.82;101180.19;5035211;28;20413;-66
2021/12/30 03:52:20;;;;;;;34.20;26.98;;;;;;;5.19;63.45;101186.78;5052812;28;20471;-65
2021/12/30 03:54:47;;;;;;;35.00;29.03;;;;;;;5.38;63.17;101189.25;5052524;28;20416;-65
2021/12/30 03:57:16;;;;;;;34.83;28.10;;;;;;;5.73;62.10;101189.13;5051980;28;20419;-66
2021/12/30 03:59:43;;;;;;;31.58;25.20;;;;;;;5.88;61.59;101191.84;5052517;28;20483;-66
2021/12/30 04:02:11;;;;;;;25.70;21.00;;;;;;;5.78;61.39;101194.16;5052371;28;20495;-66
2021/12/30 04:04:38;;;;;;;26.42;20.55;;;;;;;5.96;60.99;101208.06;5052466;28;20408;-66
2021/12/30 04:07:05;;;;;;;22.83;18.20;;;;;;;6.00;60.66;101204.31;5052318;28;20499;-66
2021/12/30 04:09:32;;;;;;;21.50;17.08;;;;;;;5.86;61.23;101202.47;5052459;28;20432;-67
2021/12/30 04:11:59;;;;;;;20.10;15.30;;;;;;;5.78;61.21;101205.50;5052042;28;20507;-66
2021/12/30 04:14:27;;;;;;;17.80;15.23;;;;;;;5.82;61.11;101214.91;5052485;28;20419;-66
2021/12/30 04:16:55;;;;;;;19.35;15.40;;;;;;;6.00;60.44;101214.84;5051826;28;20481;-67
2021/12/30 04:19:23;;;;;;;18.05;14.38;;;;;;;6.10;60.10;101223.09;5052102;28;20416;-66
2021/12/30 04:21:53;;;;;;;18.27;14.93;;;;;;;6.17;59.91;101224.44;5052166;28;20423;-66
2021/12/30 04:24:21;;;;;;;19.30;14.65;;;;;;;6.28;59.51;101229.09;5052327;28;20432;-67
2021/12/30 04:26:50;;;;;;;18.15;13.98;;;;;;;6.19;59.56;101243.63;5052305;28;20417;-66
2021/12/30 04:29:17;;;;;;;19.60;15.25;;;;;;;6.35;59.21;101240.97;5051944;28;20419;-67
2021/12/30 04:31:44;;;;;;;19.45;15.73;;;;;;;6.24;59.82;101248.63;5051946;28;20503;-66
2021/12/30 04:34:11;;;;;;;23.45;19.85;;;;;;;6.20;59.78;101253.19;5051898;28;20511;-66
2021/12/30 04:36:41;;;;;;;25.73;21.30;;;;;;;5.99;60.55;101253.47;5052297;28;20412;-66
2021/12/30 04:39:08;;;;;;;21.60;17.88;;;;;;;5.97;60.41;101255.31;5051855;28;20400;-66
2021/12/30 04:41:35;;;;;;;18.80;15.23;;;;;;;5.84;60.46;101267.44;5052065;28;20449;-67
2021/12/30 04:44:02;;;;;;;23.13;19.80;;;;;;;5.83;61.01;101270.97;5051947;28;20515;-66
2021/12/30 04:46:30;;;;;;;22.50;18.10;;;;;;;6.00;60.93;101277.97;5051662;28;20923;-66
2021/12/30 04:48:56;;;;;;;21.05;16.80;;;;;;;6.04;60.28;101274.25;5051853;28;20417;-66
2021/12/30 04:51:23;;;;;;;19.60;17.05;;;;;;;6.02;60.10;101278.75;5051736;28;20507;-66
2021/12/30 04:53:52;;;;;;;24.00;20.70;;;;;;;5.99;60.69;101274.50;5066910;28;20921;-66
2021/12/30 04:56:19;;;;;;;21.33;18.40;;;;;;;6.06;60.93;101287.31;5051016;28;20405;-66
2021/12/30 04:58:46;;;;;;;26.02;21.13;;;;;;;6.27;60.44;101294.03;5051675;28;20500;-66
2021/12/30 05:01:13;;;;;;;27.98;22.77;;;;;;;6.25;59.95;101302.97;5051622;28;20504;-67
2021/12/30 05:03:40;;;;;;;32.65;25.40;;;;;;;6.15;60.27;101311.34;5051497;28;20428;-66
2021/12/30 05:06:07;;;;;;;32.10;27.25;;;;;;;6.22;60.13;101312.72;5051535;28;20415;-66
2021/12/30 05:08:35;;;;;;;32.13;27.27;;;;;;;6.15;60.21;101313.13;5051081;28;20423;-66
2021/12/30 05:11:04;;;;;;;32.70;27.25;;;;;;;5.99;60.94;101307.84;5043215;28;20845;-72
2021/12/30 05:13:32;;;;;;;29.67;24.10;;;;;;;5.85;61.39;101310.34;5043770;28;20551;-66
2021/12/30 05:15:59;;;;;;;26.02;21.23;;;;;;;5.85;61.36;101323.50;5051015;28;20830;-67
2021/12/30 05:18:33;;;;;;;23.55;19.08;;;;;;;5.94;61.12;101325.63;5051410;28;20504;-66
2021/12/30 05:21:04;;;;;;;24.92;19.13;;;;;;;5.92;61.27;101330.09;5050956;28;20413;-66
2021/12/30 05:23:31;;;;;;;24.73;19.63;;;;;;;6.15;60.27;101334.19;5051351;28;20531;-66
2021/12/30 05:25:59;;;;;;;23.23;19.02;;;;;;;6.17;60.09;101337.56;5050875;28;20413;-66
2021/12/30 05:28:27;;;;;;;25.80;20.77;;;;;;;6.09;60.49;101337.97;5050939;28;21425;-66
2021/12/30 05:30:54;;;;;;;27.13;21.65;;;;;;;6.17;60.38;101343.69;5050431;28;20499;-66
2021/12/30 05:33:21;;;;;;;25.40;20.98;;;;;;;6.21;60.10;101345.22;5050927;28;20409;-67
2021/12/30 05:35:48;;;;;;;27.48;22.20;;;;;;;6.18;60.34;101347.16;5016640;28;20439;-66
2021/12/30 05:38:17;;;;;;;42.08;29.73;;;;;;;6.15;60.57;101350.81;5050456;28;20510;-65
2021/12/30 05:40:44;;;;;;;31.38;24.48;;;;;;;6.20;60.64;101359.31;5050650;28;20417;-66
2021/12/30 05:43:11;;;;;;;30.77;24.75;;;;;;;6.24;60.67;101356.50;5050798;28;20432;-66
2021/12/30 05:45:40;;;;;;;28.48;22.92;;;;;;;6.19;60.42;101359.38;5050530;28;20495;-66
2021/12/30 05:48:07;;;;;;;27.10;22.63;;;;;;;5.73;61.79;101372.31;5050619;28;20851;-66
2021/12/30 05:50:34;;;;;;;30.35;24.15;;;;;;;5.69;61.94;101376.03;5050232;28;20803;-67
2021/12/30 05:53:01;;;;;;;31.80;24.10;;;;;;;5.65;62.01;101377.13;5050517;28;20495;-66
2021/12/30 05:55:29;;;;;;;30.70;24.85;;;;;;;6.05;60.67;101375.91;5050201;28;20845;-66
2021/12/30 05:57:57;;;;;;;32.78;26.27;;;;;;;5.74;61.80;101384.53;5049929;28;20898;-66
2021/12/30 06:00:29;;;;;;;30.05;24.98;;;;;;;5.24;63.27;101396.69;5049061;28;20590;-66
2021/12/30 06:02:57;;;;;;;28.20;23.83;;;;;;;5.24;63.83;101398.47;5049322;28;20504;-66
2021/12/30 06:05:24;;;;;;;29.67;24.77;;;;;;;5.81;62.04;101397.25;5050014;28;20439;-66
2021/12/30 06:07:51;;;;;;;30.65;25.98;;;;;;;5.72;61.95;101399.53;5048904;28;20503;-66
2021/12/30 06:10:19;;;;;;;30.30;24.50;;;;;;;5.69;61.49;101402.31;5050090;28;20500;-66
2021/12/30 06:12:47;;;;;;;28.87;23.57;;;;;;;5.57;62.01;101403.78;5049744;28;20412;-66
2021/12/30 06:15:14;;;;;;;28.05;23.10;;;;;;;5.45;62.21;101417.53;5049995;28;20451;-66
2021/12/30 06:17:42;;;;;;;28.95;22.90;;;;;;;5.32;62.87;101414.69;5050218;28;20440;-66
2021/12/30 06:20:13;;;;;;;31.40;26.08;;;;;;;5.74;61.91;101422.19;5049622;28;20903;-66
2021/12/30 06:22:40;;;;;;;32.17;27.10;;;;;;;5.79;61.35;101428.03;5049631;28;20427;-66
2021/12/30 06:25:08;;;;;;;34.63;27.13;;;;;;;5.76;61.66;101428.22;5049702;28;21043;-66
2021/12/30 06:27:35;;;;;;;25.80;22.48;;;;;;;5.98;61.18;101438.53;5049900;28;20445;-66
2021/12/30 06:30:02;;;;;;;28.20;24.23;;;;;;;6.31;60.37;101440.28;5049669;28;20413;-66
2021/12/30 06:32:29;;;;;;;28.10;24.52;;;;;;;6.42;59.92;101452.88;5049871;28;20491;-67
2021/12/30 06:34:56;;;;;;;45.03;40.63;;;;;;;6.44;59.84;101463.31;5049429;28;20412;-66
2021/12/30 06:37:24;;;;;;;46.35;41.30;;;;;;;6.46;59.70;101478.09;5049522;28;20499;-66
2021/12/30 06:39:51;;;;;;;36.25;29.35;;;;;;;6.55;59.57;101484.63;5049243;28;20492;-66
2021/12/30 06:42:18;;;;;;;41.78;34.00;;;;;;;6.64;59.35;101484.16;5049446;28;20504;-67
2021/12/30 06:44:45;;;;;;;41.13;34.67;;;;;;;6.73;59.36;101486.31;5049141;28;20956;-66
2021/12/30 06:47:12;;;;;;;46.03;40.17;;;;;;;6.78;59.21;101492.16;5049102;28;20451;-66
2021/12/30 06:49:39;;;;;;;53.63;47.70;;;;;;;6.78;59.33;101494.78;5049552;28;20487;-66
2021/12/30 06:52:07;;;;;;;56.38;50.25;;;;;;;6.66;59.54;101495.47;5049589;28;20404;-66
2021/12/30 06:54:36;;;;;;;61.22;54.70;;;;;;;6.69;59.55;101491.81;5049239;28;20914;-69
2021/12/30 06:57:06;;;;;;;47.33;41.92;;;;;;;6.64;59.88;101501.75;5031523;28;20978;-66
2021/12/30 06:59:35;;;;;;;81.13;73.38;;;;;;;6.72;59.48;101497.75;5049096;28;20420;-66
2021/12/30 07:02:02;;;;;;;52.88;47.25;;;;;;;6.89;58.84;101502.09;5049084;28;20416;-67
2021/12/30 07:04:29;;;;;;;43.05;37.58;;;;;;;6.97;58.49;101510.44;5048907;28;20435;-66
2021/12/30 07:06:56;;;;;;;46.08;39.28;;;;;;;7.03;58.60;101517.16;5031633;28;20513;-66
2021/12/30 07:09:24;;;;;;;51.67;40.88;;;;;;;6.92;58.71;101523.03;5049419;28;20495;-66
2021/12/30 07:11:54;;;;;;;56.30;43.97;;;;;;;6.84;58.76;101527.84;5049046;28;20503;-66
2021/12/30 07:14:22;;;;;;;53.78;42.53;;;;;;;6.49;59.84;101533.22;5048972;28;20998;-66
2021/12/30 07:16:50;;;;;;;57.53;46.90;;;;;;;5.93;61.50;101540.44;5049301;28;20579;-66
2021/12/30 07:19:17;;;;;;;65.55;49.72;;;;;;;6.65;60.27;101548.19;5051204;28;20416;-65
2021/12/30 07:21:45;;;;;;;55.85;44.78;;;;;;;6.73;58.91;101560.03;5053434;28;20499;-66
2021/12/30 07:24:12;;;;;;;52.80;43.45;;;;;;;6.14;60.59;101564.84;5052763;28;20428;-66
2021/12/30 07:26:39;;;;;;;56.88;43.55;;;;;;;6.03;61.93;101572.41;5053090;28;20495;-66
2021/12/30 07:29:07;;;;;;;62.35;46.97;;;;;;;6.42;61.03;101580.06;5053292;28;20400;-66
2021/12/30 07:31:34;;;;;;;58.58;45.67;;;;;;;6.41;60.49;101583.63;5052996;28;20411;-67
2021/12/30 07:34:01;;;;;;;59.45;46.75;;;;;;;6.60;59.88;101593.22;5052795;28;20868;-66
2021/12/30 07:36:28;;;;;;;62.63;47.33;;;;;;;6.99;59.43;101598.13;5052830;28;20491;-68
2021/12/30 07:38:55;;;;;;;56.15;44.63;;;;;;;6.95;58.88;101599.22;5053208;28;20412;-67
2021/12/30 07:41:22;;;;;;;59.83;46.85;;;;;;;7.31;58.49;101599.97;5053288;28;20409;-67
2021/12/30 07:43:49;;;;;;;58.00;47.35;;;;;;;7.44;57.91;101601.00;5052581;28;20998;-68
2021/12/30 07:46:18;;;;;;;65.68;49.53;;;;;;;7.34;57.78;101611.22;5035334;28;20810;-67
2021/12/30 07:48:45;;;;;;;63.50;50.35;;;;;;;7.43;58.03;101615.94;5034579;28;20960;-66
2021/12/30 07:51:12;;;;;;;59.15;48.42;;;;;;;7.43;58.12;101618.59;5052616;28;20424;-67
2021/12/30 07:53:39;;;;;;;57.40;46.47;;;;;;;7.40;58.27;101624.03;5052443;28;20507;-67
2021/12/30 07:56:07;;;;;;;48.42;40.10;;;;;;;7.50;57.82;101632.31;5035016;28;20420;-67
2021/12/30 07:58:34;;;;;;;49.05;41.83;;;;;;;7.62;57.43;101633.38;5052846;28;20416;-67
2021/12/30 08:01:01;;;;;;;42.50;37.72;;;;;;;7.79;56.84;101638.59;5052464;28;20492;-68
2021/12/30 08:03:30;;;;;;;47.30;41.15;;;;;;;7.81;57.01;101641.13;5052539;28;20448;-67
2021/12/30 08:05:57;;;;;;;48.15;41.33;;;;;;;7.94;56.64;101642.13;5052501;28;20408;-66
2021/12/30 08:08:24;;;;;;;50.22;43.15;;;;;;;7.99;56.35;101655.09;5052623;28;20496;-67
2021/12/30 08:10:51;;;;;;;52.60;44.10;;;;;;;8.05;56.65;101646.81;5052516;28;20525;-67
2021/12/30 08:13:18;;;;;;;51.83;42.67;;;;;;;8.28;55.70;101653.41;5051966;28;20838;-65
2021/12/30 08:15:46;;;;;;;52.45;43.38;;;;;;;8.45;55.53;101652.44;5052206;28;20415;-67
2021/12/30 08:18:13;;;;;;;57.65;42.83;;;;;;;8.70;54.90;101661.53;5052547;28;20431;-67
2021/12/30 08:20:42;;;;;;;50.92;42.83;;;;;;;8.79;54.90;101667.13;5051816;28;20922;-67
2021/12/30 08:23:09;;;;;;;49.13;42.53;;;;;;;8.98;54.38;101666.88;5051982;28;20444;-67
2021/12/30 08:25:36;;;;;;;49.58;42.00;;;;;;;9.08;53.76;101666.28;5051528;28;20436;-68
2021/12/30 08:28:03;;;;;;;49.38;41.70;;;;;;;9.20;53.84;101665.53;5051800;28;20417;-67
2021/12/30 08:30:30;;;;;;;64.40;53.45;;;;;;;9.42;53.49;101657.97;5051064;28;20417;-67
2021/12/30 08:32:58;;;;;;;47.92;41.67;;;;;;;9.52;52.77;101667.97;5051819;28;20447;-68
2021/12/30 08:35:25;;;;;;;50.90;45.00;;;;;;;9.74;52.61;101673.59;5052038;28;20412;-67
2021/12/30 08:37:55;;;;;;;52.20;44.67;;;;;;;9.87;52.12;101675.44;5052017;28;20496;-67
2021/12/30 08:40:22;;;;;;;54.30;46.80;;;;;;;9.86;52.43;101679.06;5051586;28;20462;-67
2021/12/30 08:42:49;;;;;;;48.83;40.30;;;;;;;9.67;52.56;101690.81;5051582;28;20408;-67
2021/12/30 08:45:16;;;;;;;46.17;39.40;;;;;;;9.83;52.65;101696.84;5066471;28;20440;-67
2021/12/30 08:47:44;;;;;;;47.05;39.40;;;;;;;9.99;52.19;101687.91;5051849;28;20412;-67
2021/12/30 08:50:14;;;;;;;43.80;37.47;;;;;;;10.21;51.28;101696.13;5051584;28;20532;-67
2021/12/30 08:52:42;;;;;;;54.33;43.88;;;;;;;10.17;51.61;101701.75;5051651;28;20484;-67
2021/12/30 08:55:14;;;;;;;58.72;48.40;;;;;;;10.12;51.59;101702.03;5051631;28;20499;-67
2021/12/30 08:57:42;;;;;;;58.70;48.35;;;;;;;10.14;51.39;101705.44;5051208;28;20921;-67
2021/12/30 09:00:13;;;;;;;59.80;49.25;;;;;;;10.35;51.59;101711.16;5051183;28;20515;-67
2021/12/30 09:02:41;;;;;;;56.70;46.67;;;;;;;9.99;52.04;101703.78;5051123;28;20503;-67
2021/12/30 09:05:10;;;;;;;51.67;44.05;;;;;;;10.23;52.04;101698.69;5050998;28;20807;-66
2021/12/30 09:07:37;;;;;;;39.05;34.22;;;;;;;10.48;51.38;101703.22;5051212;28;20423;-68
2021/12/30 09:10:05;;;;;;;36.35;32.17;;;;;;;11.01;50.18;101701.41;5051288;28;20408;-67
2021/12/30 09:12:33;;;;;;;45.90;38.25;;;;;;;11.18;49.63;101710.00;5051319;28;20420;-67
2021/12/30 09:15:01;;;;;;;49.20;42.15;;;;;;;11.46;49.05;101700.13;5050959;28;20591;-68
2021/12/30 09:17:28;;;;;;;46.95;41.90;;;;;;;11.77;48.25;101698.75;5051435;28;20417;-67
2021/12/30 09:19:55;;;;;;;38.67;34.58;;;;;;;12.14;47.06;101696.94;5050778;28;20492;-69
2021/12/30 09:22:22;;;;;;;34.60;30.90;;;;;;;12.50;46.25;101691.66;5050731;28;20500;-67
2021/12/30 09:24:49;;;;;;;32.50;29.00;;;;;;;12.61;45.80;101692.56;5032925;28;20421;-68
2021/12/30 09:27:16;;;;;;;31.70;28.35;;;;;;;13.47;44.77;101681.56;5050502;28;20938;-68
2021/12/30 09:29:44;;;;;;;32.47;29.05;;;;;;;14.36;42.66;101680.44;5066269;28;20782;-66
2021/12/30 09:32:11;;;;;;;31.83;28.60;;;;;;;15.96;39.73;101677.31;5050641;28;20495;-67
2021/12/30 09:34:38;;;;;;;28.17;25.38;;;;;;;16.43;38.21;101680.13;5050613;28;20496;-68
2021/12/30 09:37:09;;;;;;;27.38;24.67;;;;;;;16.93;37.14;101689.81;5050536;28;20412;-67
2021/12/30 09:39:36;;;;;;;26.42;23.83;;;;;;;17.87;35.86;101696.88;5050706;28;20495;-68
2021/12/30 09:42:05;;;;;;;26.33;23.73;;;;;;;18.84;34.30;101705.16;5050563;28;20427;-68
2021/12/30 09:44:32;;;;;;;27.20;24.60;;;;;;;19.15;33.85;101705.50;5050690;28;20531;-68
2021/12/30 09:47:00;;;;;;;28.58;25.77;;;;;;;18.67;33.06;101699.59;5050837;28;20421;-68
2021/12/30 09:49:29;;;;;;;26.45;23.95;;;;;;;18.04;34.65;101705.94;5032740;28;20499;-65
2021/12/30 09:51:56;;;;;;;25.00;22.65;;;;;;;20.46;31.39;101707.75;5050495;28;20495;-65
2021/12/30 09:54:23;;;;;;;25.98;23.48;;;;;;;22.99;28.04;101713.81;5050015;28;20929;-66
2021/12/30 09:56:51;;;;;;;40.47;36.58;;;;;;;25.95;24.20;101701.75;5049984;28;20413;-66
2021/12/30 09:59:18;;;;;;;24.02;21.73;;;;;;;24.86;24.99;101705.13;5050190;28;20504;-65
2021/12/30 10:01:45;;;;;;;23.25;21.10;;;;;;;23.85;25.22;101702.50;5050062;28;20412;-68
2021/12/30 10:04:13;;;;;;;20.17;18.17;;;;;;;22.46;26.70;101707.53;5049751;28;20416;-66
2021/12/30 10:06:45;;;;;;;23.35;21.00;;;;;;;23.17;26.15;101705.34;5050277;28;20413;-66
2021/12/30 10:09:14;;;;;;;29.02;25.98;;;;;;;22.08;27.28;101722.81;5049902;28;20408;-66
2021/12/30 10:11:46;;;;;;;56.92;52.70;;;;;;;22.42;26.81;101725.13;5050211;28;20405;-65
2021/12/30 10:14:25;;;;;;;39.08;34.58;;;;;;;21.85;27.84;101729.00;5049847;28;20512;-65
2021/12/30 10:16:52;;;;;;;25.03;22.73;;;;;;;19.84;30.49;101724.31;5049826;28;20435;-66
2021/12/30 10:19:27;;;;;;;28.08;25.25;;;;;;;18.90;31.63;101732.22;5049877;28;20581;-66
2021/12/30 10:21:54;;;;;;;17.63;15.73;;;;;;;17.06;34.55;101734.16;5049911;28;20953;-66
2021/12/30 10:24:20;;;;;;;22.77;20.40;;;;;;;16.21;36.25;101739.25;5049605;28;20564;-66
2021/12/30 10:26:49;;;;;;;45.05;40.10;;;;;;;16.34;36.52;101733.63;5049691;28;20944;-66
2021/12/30 10:29:16;;;;;;;54.05;45.00;;;;;;;16.32;36.52;101722.22;5048122;28;20427;-67
2021/12/30 10:31:44;;;;;;;36.00;30.05;;;;;;;16.39;36.37;101721.50;5049822;28;20423;-66
2021/12/30 10:34:12;;;;;;;19.83;17.83;;;;;;;17.14;35.90;101715.53;5050089;28;20477;-66
2021/12/30 10:36:43;;;;;;;24.88;22.50;;;;;;;18.89;32.89;101724.31;5049846;28;20420;-66
2021/12/30 10:39:19;;;;;;;19.70;17.70;;;;;;;19.67;31.12;101718.84;5050207;28;20416;-66
2021/12/30 10:41:47;;;;;;;16.58;14.95;;;;;;;20.63;30.08;101722.09;5049910;28;20421;-66
2021/12/30 10:44:14;;;;;;;15.40;13.80;;;;;;;20.49;29.92;101712.81;5049945;28;20503;-67
2021/12/30 10:46:42;;;;;;;15.15;13.65;;;;;;;19.64;30.92;101721.84;5049662;28;20420;-66
2021/12/30 10:49:10;;;;;;;17.40;15.60;;;;;;;20.15;30.56;101728.09;5049561;28;20556;-66
2021/12/30 10:51:42;;;;;;;11.43;10.30;;;;;;;18.96;31.04;101731.59;5049370;28;20865;-66
2021/12/30 10:54:13;;;;;;;10.10;9.23;;;;;;;19.46;30.72;101721.94;5048720;28;21236;-65
2021/12/30 10:56:42;;;;;;;14.30;13.00;;;;;;;18.19;32.27;101725.03;5049647;28;20412;-65
2021/12/30 10:59:12;;;;;;;16.75;15.25;;;;;;;17.81;33.03;101717.06;5049705;28;20417;-65
2021/12/30 11:01:41;;;;;;;16.05;14.55;;;;;;;17.18;34.27;101722.28;5049365;28;20830;-66
2021/12/30 11:04:09;;;;;;;20.02;18.42;;;;;;;16.99;35.02;101724.03;5049408;28;20419;-67
2021/12/30 11:06:36;;;;;;;17.63;16.02;;;;;;;16.83;35.21;101721.09;5048825;28;20514;-65
2021/12/30 11:09:11;;;;;;;21.67;19.48;;;;;;;15.99;36.56;101721.63;5048997;28;20973;-65
2021/12/30 11:11:42;;;;;;;30.13;27.30;;;;;;;15.76;37.30;101718.34;5048967;28;20503;-65
2021/12/30 11:14:11;;;;;;;16.75;15.15;;;;;;;16.19;36.37;101723.34;5048883;28;20408;-65
2021/12/30 11:17:05;;;;;;;11.38;10.38;;;;;;;15.73;37.31;101707.91;5048984;28;20427;-66
2021/12/30 11:19:35;;;;;;;22.63;20.30;;;;;;;15.46;38.06;101708.50;5049325;28;20409;-67
2021/12/30 11:22:04;;;;;;;11.38;10.20;;;;;;;16.01;37.07;101709.78;5049375;28;20424;-67